sensor_id;sensor_type;location;lat;lon;timestamp;pressure;altitude;pressure_sealevel;temperature;humidity
44044;BME280;29709;52.396;16.796;2022-09-09T00:00:28;101199.24;;;19.34;84.12
44044;BME280;29709;52.396;16.796;2022-09-09T00:13:37;101183.83;;;19.31;83.84
44044;BME280;29709;52.396;16.796;2022-09-09T00:16:43;101190.66;;;19.36;83.12
44044;BME280;29709;52.396;16.796;2022-09-09T00:20:00;101188.95;;;19.35;81.71
44044;BME280;29709;52.396;16.796;2022-09-09T00:23:12;101196.91;;;19.31;82.71
44044;BME280;29709;52.396;16.796;2022-09-09T00:30:13;101198.20;;;19.28;81.63
44044;BME280;29709;52.396;16.796;2022-09-09T00:32:50;101191.33;;;19.24;84.18
44044;BME280;29709;52.396;16.796;2022-09-09T00:35:58;101190.70;;;19.22;82.42
44044;BME280;29709;52.396;16.796;2022-09-09T00:39:02;101191.13;;;19.19;83.06
44044;BME280;29709;52.396;16.796;2022-09-09T00:42:42;101200.97;;;19.15;82.94
44044;BME280;29709;52.396;16.796;2022-09-09T00:52:23;101200.12;;;19.15;83.60
44044;BME280;29709;52.396;16.796;2022-09-09T00:55:39;101203.34;;;19.12;84.23
44044;BME280;29709;52.396;16.796;2022-09-09T00:58:55;101208.68;;;19.07;84.34
44044;BME280;29709;52.396;16.796;2022-09-09T01:01:59;101201.84;;;19.02;85.89
44044;BME280;29709;52.396;16.796;2022-09-09T01:05:39;101202.27;;;18.99;84.07
44044;BME280;29709;52.396;16.796;2022-09-09T01:15:20;101217.05;;;19.00;84.48
44044;BME280;29709;52.396;16.796;2022-09-09T01:28:16;101217.47;;;18.84;83.65
44044;BME280;29709;52.396;16.796;2022-09-09T01:31:27;101230.31;;;18.85;83.78
44044;BME280;29709;52.396;16.796;2022-09-09T01:34:38;101232.46;;;18.83;82.68
44044;BME280;29709;52.396;16.796;2022-09-09T01:37:43;101239.75;;;18.77;81.72
44044;BME280;29709;52.396;16.796;2022-09-09T01:41:12;101241.87;;;18.68;84.06
44044;BME280;29709;52.396;16.796;2022-09-09T01:44:15;101241.41;;;18.65;83.07
44044;BME280;29709;52.396;16.796;2022-09-09T01:47:18;101234.10;;;18.64;83.34
44044;BME280;29709;52.396;16.796;2022-09-09T01:50:21;101233.04;;;18.58;81.97
44044;BME280;29709;52.396;16.796;2022-09-09T01:53:25;101230.65;;;18.49;83.28
44044;BME280;29709;52.396;16.796;2022-09-09T02:06:25;101239.58;;;18.31;82.27
44044;BME280;29709;52.396;16.796;2022-09-09T02:09:29;101250.71;;;18.24;82.65
44044;BME280;29709;52.396;16.796;2022-09-09T02:13:06;101252.80;;;18.15;81.69
44044;BME280;29709;52.396;16.796;2022-09-09T02:19:32;101242.91;;;18.06;82.26
44044;BME280;29709;52.396;16.796;2022-09-09T02:22:38;101249.93;;;18.02;82.69
44044;BME280;29709;52.396;16.796;2022-09-09T02:25:43;101252.31;;;18.05;82.91
44044;BME280;29709;52.396;16.796;2022-09-09T02:28:50;101258.70;;;17.99;82.49
44044;BME280;29709;52.396;16.796;2022-09-09T02:31:57;101254.62;;;17.95;82.98
44044;BME280;29709;52.396;16.796;2022-09-09T02:35:08;101261.46;;;17.93;81.24
44044;BME280;29709;52.396;16.796;2022-09-09T02:38:15;101264.19;;;17.86;80.61
44044;BME280;29709;52.396;16.796;2022-09-09T02:41:21;101263.05;;;17.74;81.14
44044;BME280;29709;52.396;16.796;2022-09-09T02:44:27;101264.50;;;17.70;81.10
44044;BME280;29709;52.396;16.796;2022-09-09T02:48:04;101260.81;;;17.63;80.74
44044;BME280;29709;52.396;16.796;2022-09-09T02:54:33;101270.80;;;17.57;80.33
44044;BME280;29709;52.396;16.796;2022-09-09T02:57:36;101281.69;;;17.52;79.85
44044;BME280;29709;52.396;16.796;2022-09-09T03:00:40;101285.91;;;17.48;79.81
44044;BME280;29709;52.396;16.796;2022-09-09T03:04:09;101283.03;;;17.35;79.34
44044;BME280;29709;52.396;16.796;2022-09-09T03:07:12;101281.66;;;17.24;80.58
44044;BME280;29709;52.396;16.796;2022-09-09T03:10:15;101283.72;;;17.15;81.20
44044;BME280;29709;52.396;16.796;2022-09-09T03:13:18;101277.91;;;17.10;80.79
44044;BME280;29709;52.396;16.796;2022-09-09T03:16:22;101282.13;;;17.06;80.84
44044;BME280;29709;52.396;16.796;2022-09-09T03:22:41;101286.38;;;17.02;80.18
44044;BME280;29709;52.396;16.796;2022-09-09T03:25:51;101292.13;;;17.00;80.77
44044;BME280;29709;52.396;16.796;2022-09-09T03:28:57;101293.85;;;17.01;79.91
44044;BME280;29709;52.396;16.796;2022-09-09T03:32:03;101290.66;;;17.05;81.01
44044;BME280;29709;52.396;16.796;2022-09-09T03:35:31;101308.38;;;17.03;80.25
44044;BME280;29709;52.396;16.796;2022-09-09T03:38:40;101305.16;;;17.00;80.71
44044;BME280;29709;52.396;16.796;2022-09-09T03:41:43;101299.40;;;17.01;79.72
44044;BME280;29709;52.396;16.796;2022-09-09T03:48:07;101305.73;;;16.95;82.60
44044;BME280;29709;52.396;16.796;2022-09-09T03:51:20;101298.26;;;16.96;82.32
44044;BME280;29709;52.396;16.796;2022-09-09T03:54:25;101304.67;;;16.96;84.08
44044;BME280;29709;52.396;16.796;2022-09-09T03:57:53;101304.67;;;16.96;82.40
44044;BME280;29709;52.396;16.796;2022-09-09T04:04:08;101313.21;;;16.95;85.37
44044;BME280;29709;52.396;16.796;2022-09-09T04:07:12;101320.10;;;16.99;85.75
44044;BME280;29709;52.396;16.796;2022-09-09T04:13:33;101324.07;;;17.11;82.35
44044;BME280;29709;52.396;16.796;2022-09-09T04:16:37;101321.54;;;17.16;85.99
44044;BME280;29709;52.396;16.796;2022-09-09T04:20:05;101321.41;;;17.24;83.70
44044;BME280;29709;52.396;16.796;2022-09-09T04:23:14;101325.32;;;17.30;84.02
44044;BME280;29709;52.396;16.796;2022-09-09T04:26:18;101323.84;;;17.34;86.09
44044;BME280;29709;52.396;16.796;2022-09-09T04:29:20;101332.05;;;17.42;82.93
44044;BME280;29709;52.396;16.796;2022-09-09T04:32:23;101329.73;;;17.46;82.89
44044;BME280;29709;52.396;16.796;2022-09-09T04:35:29;101327.39;;;17.49;84.17
44044;BME280;29709;52.396;16.796;2022-09-09T04:38:32;101326.60;;;17.55;83.11
44044;BME280;29709;52.396;16.796;2022-09-09T04:41:35;101329.59;;;17.54;82.56
44044;BME280;29709;52.396;16.796;2022-09-09T04:44:40;101327.22;;;17.51;85.13
44044;BME280;29709;52.396;16.796;2022-09-09T04:48:09;101335.35;;;17.52;86.72
44044;BME280;29709;52.396;16.796;2022-09-09T04:51:15;101334.38;;;17.67;83.88
44044;BME280;29709;52.396;16.796;2022-09-09T04:54:18;101339.35;;;17.71;85.96
44044;BME280;29709;52.396;16.796;2022-09-09T04:57:21;101335.83;;;17.84;86.03
44044;BME280;29709;52.396;16.796;2022-09-09T05:00:24;101336.71;;;17.91;83.79
44044;BME280;29709;52.396;16.796;2022-09-09T05:03:28;101353.23;;;17.93;82.43
44044;BME280;29709;52.396;16.796;2022-09-09T05:06:32;101345.06;;;17.91;85.25
44044;BME280;29709;52.396;16.796;2022-09-09T05:09:35;101341.03;;;17.94;83.34
44044;BME280;29709;52.396;16.796;2022-09-09T05:12:38;101345.97;;;17.98;84.61
44044;BME280;29709;52.396;16.796;2022-09-09T05:15:41;101350.74;;;18.04;85.42
44044;BME280;29709;52.396;16.796;2022-09-09T05:19:10;101351.83;;;18.10;83.34
44044;BME280;29709;52.396;16.796;2022-09-09T05:22:20;101362.54;;;18.13;84.43
44044;BME280;29709;52.396;16.796;2022-09-09T05:25:25;101360.23;;;18.16;82.21
44044;BME280;29709;52.396;16.796;2022-09-09T05:28:28;101349.30;;;18.15;84.87
44044;BME280;29709;52.396;16.796;2022-09-09T05:31:32;101356.38;;;18.17;83.04
44044;BME280;29709;52.396;16.796;2022-09-09T05:34:36;101363.23;;;18.22;82.66
44044;BME280;29709;52.396;16.796;2022-09-09T05:37:42;101364.72;;;18.17;83.29
44044;BME280;29709;52.396;16.796;2022-09-09T05:40:49;101360.82;;;18.12;84.08
44044;BME280;29709;52.396;16.796;2022-09-09T05:44:18;101359.53;;;18.08;84.05
44044;BME280;29709;52.396;16.796;2022-09-09T05:47:21;101359.75;;;18.13;82.62
44044;BME280;29709;52.396;16.796;2022-09-09T05:50:24;101359.11;;;18.11;82.72
44044;BME280;29709;52.396;16.796;2022-09-09T05:53:29;101367.43;;;18.04;83.10
44044;BME280;29709;52.396;16.796;2022-09-09T05:56:36;101359.23;;;17.96;82.45
44044;BME280;29709;52.396;16.796;2022-09-09T05:59:39;101373.29;;;17.88;82.55
44044;BME280;29709;52.396;16.796;2022-09-09T06:02:42;101371.78;;;17.85;84.61
44044;BME280;29709;52.396;16.796;2022-09-09T06:05:46;101370.30;;;17.89;84.25
44044;BME280;29709;52.396;16.796;2022-09-09T06:08:54;101373.38;;;18.01;83.89
44044;BME280;29709;52.396;16.796;2022-09-09T06:12:26;101368.52;;;18.10;83.58
44044;BME280;29709;52.396;16.796;2022-09-09T06:18:44;101371.58;;;18.22;84.16
44044;BME280;29709;52.396;16.796;2022-09-09T06:21:47;101372.71;;;18.34;84.25
44044;BME280;29709;52.396;16.796;2022-09-09T06:24:51;101367.63;;;18.44;83.12
44044;BME280;29709;52.396;16.796;2022-09-09T06:27:56;101364.90;;;18.51;82.87
44044;BME280;29709;52.396;16.796;2022-09-09T06:31:09;101366.87;;;18.57;82.76
44044;BME280;29709;52.396;16.796;2022-09-09T06:34:38;101374.45;;;18.69;80.75
44044;BME280;29709;52.396;16.796;2022-09-09T06:37:45;101369.30;;;18.73;82.37
44044;BME280;29709;52.396;16.796;2022-09-09T06:40:53;101383.06;;;18.81;82.25
44044;BME280;29709;52.396;16.796;2022-09-09T06:43:58;101381.38;;;18.87;81.88
44044;BME280;29709;52.396;16.796;2022-09-09T06:47:01;101382.70;;;18.97;82.51
44044;BME280;29709;52.396;16.796;2022-09-09T06:50:06;101381.28;;;19.28;81.17
44044;BME280;29709;52.396;16.796;2022-09-09T06:53:10;101380.42;;;19.47;81.01
44044;BME280;29709;52.396;16.796;2022-09-09T06:56:24;101378.96;;;19.58;79.28
44044;BME280;29709;52.396;16.796;2022-09-09T06:59:54;101380.63;;;19.32;78.96
44044;BME280;29709;52.396;16.796;2022-09-09T07:02:57;101382.79;;;19.44;80.49
44044;BME280;29709;52.396;16.796;2022-09-09T07:06:00;101380.05;;;19.77;79.82
44044;BME280;29709;52.396;16.796;2022-09-09T07:09:08;101379.15;;;20.16;79.48
44044;BME280;29709;52.396;16.796;2022-09-09T07:12:12;101378.26;;;20.35;78.23
44044;BME280;29709;52.396;16.796;2022-09-09T07:15:15;101377.38;;;20.55;77.68
44044;BME280;29709;52.396;16.796;2022-09-09T07:18:19;101374.89;;;20.85;76.67
44044;BME280;29709;52.396;16.796;2022-09-09T07:21:26;101384.03;;;21.05;76.18
44044;BME280;29709;52.396;16.796;2022-09-09T07:25:05;101378.59;;;21.17;74.75
44044;BME280;29709;52.396;16.796;2022-09-09T07:28:08;101374.48;;;21.19;75.10
44044;BME280;29709;52.396;16.796;2022-09-09T07:31:18;101380.01;;;21.32;75.52
44044;BME280;29709;52.396;16.796;2022-09-09T07:34:21;101376.05;;;21.47;74.13
44044;BME280;29709;52.396;16.796;2022-09-09T07:37:24;101374.24;;;21.59;73.46
44044;BME280;29709;52.396;16.796;2022-09-09T07:40:27;101380.85;;;21.65;74.01
44044;BME280;29709;52.396;16.796;2022-09-09T07:43:30;101373.89;;;21.74;73.94
44044;BME280;29709;52.396;16.796;2022-09-09T07:46:39;101378.93;;;21.90;73.86
44044;BME280;29709;52.396;16.796;2022-09-09T07:50:09;101389.61;;;22.00;73.21
44044;BME280;29709;52.396;16.796;2022-09-09T07:53:13;101390.13;;;22.15;73.09
44044;BME280;29709;52.396;16.796;2022-09-09T07:56:17;101386.80;;;22.25;72.16
44044;BME280;29709;52.396;16.796;2022-09-09T07:59:22;101390.22;;;22.27;70.81
44044;BME280;29709;52.396;16.796;2022-09-09T08:02:26;101387.04;;;22.23;70.83
44044;BME280;29709;52.396;16.796;2022-09-09T08:05:31;101392.54;;;22.11;70.65
44044;BME280;29709;52.396;16.796;2022-09-09T08:08:35;101396.02;;;22.07;71.08
44044;BME280;29709;52.396;16.796;2022-09-09T08:11:40;101387.04;;;22.23;71.54
44044;BME280;29709;52.396;16.796;2022-09-09T08:14:43;101397.09;;;22.31;71.04
44044;BME280;29709;52.396;16.796;2022-09-09T08:18:12;101402.59;;;22.37;70.93
44044;BME280;29709;52.396;16.796;2022-09-09T08:21:20;101397.47;;;22.34;70.07
44044;BME280;29709;52.396;16.796;2022-09-09T08:24:23;101407.48;;;22.24;70.28
44044;BME280;29709;52.396;16.796;2022-09-09T08:27:32;101406.55;;;22.30;69.71
44044;BME280;29709;52.396;16.796;2022-09-09T08:30:35;101406.02;;;22.39;70.00
44044;BME280;29709;52.396;16.796;2022-09-09T08:33:41;101405.42;;;22.56;70.14
44044;BME280;29709;52.396;16.796;2022-09-09T08:36:45;101400.44;;;22.76;70.44
44044;BME280;29709;52.396;16.796;2022-09-09T08:40:22;101397.17;;;22.97;69.00
44044;BME280;29709;52.396;16.796;2022-09-09T08:43:29;101397.17;;;22.97;67.29
44044;BME280;29709;52.396;16.796;2022-09-09T08:50:02;101404.34;;;23.23;67.58
44044;BME280;29709;52.396;16.796;2022-09-09T08:56:31;101402.92;;;23.32;64.85
44044;BME280;29709;52.396;16.796;2022-09-09T08:59:34;101401.51;;;23.42;64.43
44044;BME280;29709;52.396;16.796;2022-09-09T09:09:18;101404.67;;;23.75;63.62
44044;BME280;29709;52.396;16.796;2022-09-09T09:12:26;101400.91;;;23.81;63.20
44044;BME280;29709;52.396;16.796;2022-09-09T09:15:36;101404.92;;;23.85;62.74
44044;BME280;29709;52.396;16.796;2022-09-09T09:18:40;101405.16;;;23.72;61.97
44044;BME280;29709;52.396;16.796;2022-09-09T09:25:34;101399.31;;;23.85;61.61
44044;BME280;29709;52.396;16.796;2022-09-09T09:28:39;101405.68;;;23.93;60.88
44044;BME280;29709;52.396;16.796;2022-09-09T09:35:36;101410.36;;;24.22;60.61
44044;BME280;29709;52.396;16.796;2022-09-09T09:38:39;101410.01;;;24.42;60.60
44044;BME280;29709;52.396;16.796;2022-09-09T09:41:43;101407.42;;;24.64;60.40
44044;BME280;29709;52.396;16.796;2022-09-09T09:44:46;101409.75;;;24.55;59.45
44044;BME280;29709;52.396;16.796;2022-09-09T09:47:57;101403.41;;;24.60;58.49
44044;BME280;29709;52.396;16.796;2022-09-09T09:51:09;101408.02;;;24.66;59.22
44044;BME280;29709;52.396;16.796;2022-09-09T09:57:29;101405.15;;;24.89;57.68
44044;BME280;29709;52.396;16.796;2022-09-09T10:00:47;101410.45;;;24.74;57.70
44044;BME280;29709;52.396;16.796;2022-09-09T10:03:53;101405.05;;;24.84;58.03
44044;BME280;29709;52.396;16.796;2022-09-09T10:07:15;101400.84;;;25.10;58.74
44044;BME280;29709;52.396;16.796;2022-09-09T10:10:18;101413.01;;;25.27;57.95
44044;BME280;29709;52.396;16.796;2022-09-09T10:13:30;101408.93;;;25.07;55.57
44044;BME280;29709;52.396;16.796;2022-09-09T10:16:46;101409.28;;;24.98;57.23
44044;BME280;29709;52.396;16.796;2022-09-09T10:26:28;101418.82;;;24.97;56.16
44044;BME280;29709;52.396;16.796;2022-09-09T10:42:43;101426.16;;;25.39;54.49
44044;BME280;29709;52.396;16.796;2022-09-09T10:46:21;101434.74;;;25.60;54.05
44044;BME280;29709;52.396;16.796;2022-09-09T10:56:09;101426.48;;;25.54;54.39
44044;BME280;29709;52.396;16.796;2022-09-09T10:59:20;101423.45;;;25.72;53.83
44044;BME280;29709;52.396;16.796;2022-09-09T11:02:30;101423.94;;;25.69;52.96
44044;BME280;29709;52.396;16.796;2022-09-09T11:05:45;101427.93;;;25.85;52.28
44044;BME280;29709;52.396;16.796;2022-09-09T11:08:52;101427.84;;;25.97;51.69
44044;BME280;29709;52.396;16.796;2022-09-09T11:11:58;101424.66;;;25.93;49.81
44044;BME280;29709;52.396;16.796;2022-09-09T11:18:21;101425.09;;;26.02;50.77
44044;BME280;29709;52.396;16.796;2022-09-09T11:21:33;101425.96;;;25.85;50.32
44044;BME280;29709;52.396;16.796;2022-09-09T11:24:47;101423.59;;;25.66;51.29
44044;BME280;29709;52.396;16.796;2022-09-09T11:28:04;101429.45;;;25.76;51.28
44044;BME280;29709;52.396;16.796;2022-09-09T11:31:21;101426.97;;;25.79;50.79
44044;BME280;29709;52.396;16.796;2022-09-09T11:41:02;101436.44;;;26.24;49.46
44044;BME280;29709;52.396;16.796;2022-09-09T11:44:19;101427.82;;;26.30;48.37
44044;BME280;29709;52.396;16.796;2022-09-09T11:47:30;101420.58;;;26.01;48.57
44044;BME280;29709;52.396;16.796;2022-09-09T11:50:36;101421.66;;;25.83;49.35
44044;BME280;29709;52.396;16.796;2022-09-09T12:00:37;101414.02;;;25.95;48.39
44044;BME280;29709;52.396;16.796;2022-09-09T12:03:45;101419.46;;;26.02;49.45
44044;BME280;29709;52.396;16.796;2022-09-09T12:07:00;101414.26;;;26.10;49.60
44044;BME280;29709;52.396;16.796;2022-09-09T12:13:23;101404.59;;;26.23;46.91
44044;BME280;29709;52.396;16.796;2022-09-09T12:16:35;101401.45;;;26.19;48.19
44044;BME280;29709;52.396;16.796;2022-09-09T12:26:19;101401.57;;;26.63;47.90
44044;BME280;29709;52.396;16.796;2022-09-09T12:32:40;101389.30;;;26.96;46.76
44044;BME280;29709;52.396;16.796;2022-09-09T12:36:15;101397.61;;;27.03;43.98
44044;BME280;29709;52.396;16.796;2022-09-09T12:39:29;101396.60;;;26.92;45.82
44044;BME280;29709;52.396;16.796;2022-09-09T12:42:39;101386.03;;;26.83;43.79
44044;BME280;29709;52.396;16.796;2022-09-09T12:45:43;101390.81;;;26.60;45.53
44044;BME280;29709;52.396;16.796;2022-09-09T12:48:47;101377.97;;;26.69;45.90
44044;BME280;29709;52.396;16.796;2022-09-09T12:51:50;101385.32;;;26.92;45.81
44044;BME280;29709;52.396;16.796;2022-09-09T12:55:31;101387.73;;;26.84;43.96
44044;BME280;29709;52.396;16.796;2022-09-09T12:58:37;101390.02;;;26.65;43.59
44044;BME280;29709;52.396;16.796;2022-09-09T13:01:40;101397.92;;;26.46;44.21
44044;BME280;29709;52.396;16.796;2022-09-09T13:04:43;101385.87;;;26.34;45.04
44044;BME280;29709;52.396;16.796;2022-09-09T13:07:50;101382.13;;;26.45;44.82
44044;BME280;29709;52.396;16.796;2022-09-09T13:10:57;101387.65;;;26.57;45.39
44044;BME280;29709;52.396;16.796;2022-09-09T13:14:03;101379.41;;;26.72;44.57
44044;BME280;29709;52.396;16.796;2022-09-09T13:17:31;101388.85;;;26.83;43.53
44044;BME280;29709;52.396;16.796;2022-09-09T13:20:34;101385.09;;;26.77;42.75
44044;BME280;29709;52.396;16.796;2022-09-09T13:23:37;101381.56;;;26.65;42.62
44044;BME280;29709;52.396;16.796;2022-09-09T13:26:41;101385.63;;;26.74;42.98
44044;BME280;29709;52.396;16.796;2022-09-09T13:29:52;101378.60;;;26.55;44.16
44044;BME280;29709;52.396;16.796;2022-09-09T13:39:33;101380.34;;;26.22;43.98
44044;BME280;29709;52.396;16.796;2022-09-09T13:42:40;101380.88;;;26.02;45.27
44044;BME280;29709;52.396;16.796;2022-09-09T13:45:53;101388.41;;;25.97;45.29
44044;BME280;29709;52.396;16.796;2022-09-09T13:49:02;101384.64;;;25.91;45.73
44044;BME280;29709;52.396;16.796;2022-09-09T13:52:09;101386.87;;;25.89;46.29
44044;BME280;29709;52.396;16.796;2022-09-09T13:55:14;101383.95;;;25.84;45.51
44044;BME280;29709;52.396;16.796;2022-09-09T13:58:42;101384.14;;;25.77;45.83
44044;BME280;29709;52.396;16.796;2022-09-09T14:01:46;101372.35;;;25.80;45.70
44044;BME280;29709;52.396;16.796;2022-09-09T14:04:58;101366.77;;;25.69;46.19
44044;BME280;29709;52.396;16.796;2022-09-09T14:08:04;101358.92;;;25.54;46.36
44044;BME280;29709;52.396;16.796;2022-09-09T14:11:17;101368.12;;;25.49;46.55
44044;BME280;29709;52.396;16.796;2022-09-09T14:14:20;101354.20;;;25.43;47.29
44044;BME280;29709;52.396;16.796;2022-09-09T14:17:31;101367.66;;;25.41;46.99
44044;BME280;29709;52.396;16.796;2022-09-09T14:20:51;101369.44;;;25.30;47.28
44044;BME280;29709;52.396;16.796;2022-09-09T14:24:05;101374.61;;;25.21;47.58
44044;BME280;29709;52.396;16.796;2022-09-09T14:27:14;101369.16;;;25.15;47.80
44044;BME280;29709;52.396;16.796;2022-09-09T14:33:35;101371.46;;;25.18;48.17
44044;BME280;29709;52.396;16.796;2022-09-09T14:37:04;101369.44;;;25.30;47.82
44044;BME280;29709;52.396;16.796;2022-09-09T14:40:11;101367.23;;;25.32;47.98
44044;BME280;29709;52.396;16.796;2022-09-09T14:43:15;101372.62;;;25.33;47.87
44044;BME280;29709;52.396;16.796;2022-09-09T14:46:19;101368.00;;;25.27;47.85
44044;BME280;29709;52.396;16.796;2022-09-09T14:49:22;101372.76;;;25.27;48.18
44044;BME280;29709;52.396;16.796;2022-09-09T14:52:30;101366.03;;;25.28;48.01
44044;BME280;29709;52.396;16.796;2022-09-09T14:55:33;101366.69;;;25.18;48.57
44044;BME280;29709;52.396;16.796;2022-09-09T14:58:37;101356.80;;;25.16;47.65
44044;BME280;29709;52.396;16.796;2022-09-09T15:02:10;101355.25;;;24.96;48.05
44044;BME280;29709;52.396;16.796;2022-09-09T15:05:16;101353.95;;;24.87;48.69
44044;BME280;29709;52.396;16.796;2022-09-09T15:08:25;101353.68;;;24.89;48.70
44044;BME280;29709;52.396;16.796;2022-09-09T15:11:34;101354.70;;;24.83;48.68
44044;BME280;29709;52.396;16.796;2022-09-09T15:14:41;101353.38;;;24.73;49.03
44044;BME280;29709;52.396;16.796;2022-09-09T15:17:50;101350.23;;;24.70;48.89
44044;BME280;29709;52.396;16.796;2022-09-09T15:21:22;101342.02;;;24.68;50.22
44044;BME280;29709;52.396;16.796;2022-09-09T15:24:28;101330.12;;;24.78;49.41
44044;BME280;29709;52.396;16.796;2022-09-09T15:27:42;101329.45;;;24.71;49.11
44044;BME280;29709;52.396;16.796;2022-09-09T15:30:52;101343.97;;;24.68;49.42
44044;BME280;29709;52.396;16.796;2022-09-09T15:34:05;101332.63;;;24.63;49.60
44044;BME280;29709;52.396;16.796;2022-09-09T15:37:11;101347.80;;;24.62;49.92
44044;BME280;29709;52.396;16.796;2022-09-09T15:40:20;101344.38;;;24.60;49.95
44044;BME280;29709;52.396;16.796;2022-09-09T15:43:25;101341.57;;;24.60;50.33
44044;BME280;29709;52.396;16.796;2022-09-09T15:46:35;101345.24;;;24.60;51.88
44044;BME280;29709;52.396;16.796;2022-09-09T15:49:41;101341.80;;;24.58;51.06
44044;BME280;29709;52.396;16.796;2022-09-09T15:53:10;101351.59;;;24.56;52.77
44044;BME280;29709;52.396;16.796;2022-09-09T15:56:13;101348.64;;;24.62;51.92
44044;BME280;29709;52.396;16.796;2022-09-09T15:59:19;101349.59;;;24.68;51.93
44044;BME280;29709;52.396;16.796;2022-09-09T16:02:23;101339.21;;;24.68;50.65
44044;BME280;29709;52.396;16.796;2022-09-09T16:05:26;101342.27;;;24.67;50.86
44044;BME280;29709;52.396;16.796;2022-09-09T16:08:38;101334.69;;;24.67;50.64
44044;BME280;29709;52.396;16.796;2022-09-09T16:11:41;101348.01;;;24.72;51.18
44044;BME280;29709;52.396;16.796;2022-09-09T16:14:44;101352.02;;;24.76;51.07
44044;BME280;29709;52.396;16.796;2022-09-09T16:17:47;101348.86;;;24.72;50.88
44044;BME280;29709;52.396;16.796;2022-09-09T16:24:32;101350.35;;;24.63;50.71
44044;BME280;29709;52.396;16.796;2022-09-09T16:27:36;101347.80;;;24.62;51.12
44044;BME280;29709;52.396;16.796;2022-09-09T16:30:39;101345.71;;;24.57;51.23
44044;BME280;29709;52.396;16.796;2022-09-09T16:33:42;101339.49;;;24.55;51.25
44044;BME280;29709;52.396;16.796;2022-09-09T16:36:47;101352.69;;;24.55;51.08
44044;BME280;29709;52.396;16.796;2022-09-09T16:39:51;101352.35;;;24.51;51.52
44044;BME280;29709;52.396;16.796;2022-09-09T16:43:23;101353.92;;;24.47;52.05
44044;BME280;29709;52.396;16.796;2022-09-09T16:46:27;101350.50;;;24.45;51.86
44044;BME280;29709;52.396;16.796;2022-09-09T16:49:33;101352.11;;;24.41;51.93
44044;BME280;29709;52.396;16.796;2022-09-09T16:52:36;101346.36;;;24.36;52.71
44044;BME280;29709;52.396;16.796;2022-09-09T16:55:40;101341.49;;;24.31;52.81
44044;BME280;29709;52.396;16.796;2022-09-09T16:58:43;101328.64;;;24.24;52.91
44044;BME280;29709;52.396;16.796;2022-09-09T17:01:52;101340.98;;;24.23;52.71
44044;BME280;29709;52.396;16.796;2022-09-09T17:04:55;101345.27;;;24.13;53.17
44044;BME280;29709;52.396;16.796;2022-09-09T17:07:58;101354.54;;;24.02;52.93
44044;BME280;29709;52.396;16.796;2022-09-09T17:11:28;101351.98;;;23.89;53.16
44044;BME280;29709;52.396;16.796;2022-09-09T17:14:31;101352.58;;;23.79;54.06
44044;BME280;29709;52.396;16.796;2022-09-09T17:17:34;101347.31;;;23.71;54.55
44044;BME280;29709;52.396;16.796;2022-09-09T17:20:40;101354.13;;;23.64;54.91
44044;BME280;29709;52.396;16.796;2022-09-09T17:23:44;101365.70;;;23.55;55.59
44044;BME280;29709;52.396;16.796;2022-09-09T17:26:50;101360.18;;;23.49;54.45
44044;BME280;29709;52.396;16.796;2022-09-09T17:29:53;101362.84;;;23.44;54.53
44044;BME280;29709;52.396;16.796;2022-09-09T17:32:56;101366.01;;;23.36;54.90
44044;BME280;29709;52.396;16.796;2022-09-09T17:39:39;101388.33;;;23.12;57.02
44044;BME280;29709;52.396;16.796;2022-09-09T17:42:42;101382.35;;;23.09;56.67
44044;BME280;29709;52.396;16.796;2022-09-09T17:45:45;101402.23;;;23.07;56.83
44044;BME280;29709;52.396;16.796;2022-09-09T17:48:51;101396.70;;;23.00;56.18
44044;BME280;29709;52.396;16.796;2022-09-09T17:52:01;101388.84;;;22.91;56.64
44044;BME280;29709;52.396;16.796;2022-09-09T17:55:07;101383.76;;;22.81;57.74
44044;BME280;29709;52.396;16.796;2022-09-09T17:58:12;101393.19;;;22.68;58.10
44044;BME280;29709;52.396;16.796;2022-09-09T18:01:19;101390.80;;;22.54;58.68
44044;BME280;29709;52.396;16.796;2022-09-09T18:04:47;101411.85;;;22.38;59.95
44044;BME280;29709;52.396;16.796;2022-09-09T18:07:51;101403.75;;;22.30;59.65
44044;BME280;29709;52.396;16.796;2022-09-09T18:10:55;101400.63;;;22.19;59.80
44044;BME280;29709;52.396;16.796;2022-09-09T18:14:05;101397.72;;;22.08;58.73
44044;BME280;29709;52.396;16.796;2022-09-09T18:17:08;101403.65;;;21.93;60.67
44044;BME280;29709;52.396;16.796;2022-09-09T18:20:12;101403.70;;;21.86;60.59
44044;BME280;29709;52.396;16.796;2022-09-09T18:23:16;101408.91;;;21.83;61.50
44044;BME280;29709;52.396;16.796;2022-09-09T18:26:22;101399.46;;;21.77;62.42
44044;BME280;29709;52.396;16.796;2022-09-09T18:29:54;101406.22;;;21.70;62.63
44044;BME280;29709;52.396;16.796;2022-09-09T18:32:57;101393.59;;;21.60;62.52
44044;BME280;29709;52.396;16.796;2022-09-09T18:36:05;101387.18;;;21.53;60.44
44044;BME280;29709;52.396;16.796;2022-09-09T18:39:13;101389.84;;;21.42;61.58
44044;BME280;29709;52.396;16.796;2022-09-09T18:42:20;101387.54;;;21.25;62.13
44044;BME280;29709;52.396;16.796;2022-09-09T18:45:23;101384.84;;;21.12;62.03
44044;BME280;29709;52.396;16.796;2022-09-09T18:48:26;101383.14;;;21.04;63.40
44044;BME280;29709;52.396;16.796;2022-09-09T18:51:37;101386.00;;;20.98;63.82
44044;BME280;29709;52.396;16.796;2022-09-09T18:55:12;101389.29;;;20.82;63.08
44044;BME280;29709;52.396;16.796;2022-09-09T18:58:15;101391.05;;;20.69;64.33
44044;BME280;29709;52.396;16.796;2022-09-09T19:01:18;101395.17;;;20.60;63.59